Time;durP1;ratioP1;P1;durP2;ratioP2;P2;SDS_P1;SDS_P2;PMS_P1;PMS_P2;Temp;Humidity;BMP_temperature;BMP_pressure;BME280_temperature;BME280_humidity;BME280_pressure;Samples;Min_cycle;Max_cycle;Signal;HPM_P1;HPM_P2
2022/12/01 00:01:48;;;;;;;19.95;9.55;;;;;;;-2.71;100.00;101086.73;1751413;82;21094;-61
2022/12/01 00:04:14;;;;;;;19.77;8.98;;;;;;;-2.73;100.00;101086.88;1751555;82;21100;-61
2022/12/01 00:06:41;;;;;;;18.25;9.30;;;;;;;-2.75;100.00;101087.53;1751413;82;21117;-61
2022/12/01 00:11:53;;;;;;;25.43;10.35;;;;;;;-2.74;100.00;101088.37;1722672;82;21133;-63
2022/12/01 00:14:19;;;;;;;18.23;9.80;;;;;;;-2.75;100.00;101078.70;1751403;82;21066;-63
2022/12/01 00:16:46;;;;;;;18.02;9.05;;;;;;;-2.77;100.00;101079.36;1751270;82;21101;-63
2022/12/01 00:19:12;;;;;;;19.80;9.70;;;;;;;-2.79;100.00;101081.32;1751300;82;21138;-63
2022/12/01 00:21:39;;;;;;;17.90;10.15;;;;;;;-2.82;100.00;101077.14;1751408;82;21106;-63
2022/12/01 00:24:06;;;;;;;19.45;10.38;;;;;;;-2.80;100.00;101073.01;1751704;81;21551;-63
2022/12/01 00:26:33;;;;;;;19.98;9.68;;;;;;;-2.81;100.00;101080.66;1723775;82;21059;-63
2022/12/01 00:29:00;;;;;;;23.07;10.00;;;;;;;-2.84;100.00;101075.63;1752942;82;21035;-63
2022/12/01 00:31:26;;;;;;;17.60;9.00;;;;;;;-2.86;100.00;101081.10;1753177;81;21553;-62
2022/12/01 00:33:52;;;;;;;18.10;8.93;;;;;;;-2.87;100.00;101076.75;1753101;82;21007;-63
2022/12/01 00:36:20;;;;;;;18.82;9.85;;;;;;;-2.87;100.00;101081.27;1753037;82;21546;-63
2022/12/01 00:38:46;;;;;;;18.23;9.00;;;;;;;-2.87;100.00;101079.94;1752902;82;21046;-63
2022/12/01 00:41:13;;;;;;;19.15;9.73;;;;;;;-2.86;100.00;101082.92;1751938;82;21050;-62
2022/12/01 00:43:39;;;;;;;17.67;9.65;;;;;;;-2.88;100.00;101079.59;1751968;82;21066;-62
2022/12/01 00:46:06;;;;;;;14.40;8.55;;;;;;;-2.88;100.00;101079.59;1751788;82;21094;-63
2022/12/01 00:48:33;;;;;;;22.77;8.48;;;;;;;-2.88;100.00;101076.92;1751881;81;21589;-63
2022/12/01 00:50:59;;;;;;;16.50;8.00;;;;;;;-2.90;100.00;101072.22;1752290;82;21121;-63
2022/12/01 00:53:25;;;;;;;21.02;8.05;;;;;;;-2.92;100.00;101071.06;1752297;82;21090;-63
2022/12/01 00:55:54;;;;;;;21.62;9.13;;;;;;;-2.93;100.00;101076.04;1752353;82;21066;-62
2022/12/01 00:58:22;;;;;;;17.90;8.80;;;;;;;-2.93;100.00;101069.87;1752112;82;21086;-63
2022/12/01 01:00:49;;;;;;;18.27;8.18;;;;;;;-2.97;100.00;101070.67;1752027;82;21061;-62
2022/12/01 01:10:22;;;;;;;18.57;8.55;;;;;;;-2.99;100.00;101056.67;1799911;79;23953;-62
2022/12/01 01:12:50;;;;;;;19.27;8.83;;;;;;;-3.02;100.00;101060.49;1752145;81;21082;-63
2022/12/01 01:15:17;;;;;;;19.15;9.20;;;;;;;-2.99;100.00;101058.01;1751261;82;21089;-63
2022/12/01 01:17:43;;;;;;;18.50;8.30;;;;;;;-2.97;100.00;101059.17;1751430;82;21086;-63
2022/12/01 01:20:11;;;;;;;18.67;8.73;;;;;;;-2.99;100.00;101057.16;1751276;82;21121;-63
2022/12/01 01:22:38;;;;;;;18.70;8.68;;;;;;;-2.98;100.00;101058.84;1723841;82;21035;-63
2022/12/01 01:25:05;;;;;;;18.57;8.43;;;;;;;-3.00;100.00;101058.98;1752852;82;21066;-63
2022/12/01 01:27:33;;;;;;;16.90;8.30;;;;;;;-3.01;100.00;101057.30;1752331;82;21103;-63
2022/12/01 01:30:00;;;;;;;22.00;8.38;;;;;;;-3.02;100.00;101059.16;1721669;82;21027;-63
2022/12/01 01:32:26;;;;;;;15.00;7.60;;;;;;;-3.02;100.00;101056.98;1689321;84;21083;-63
2022/12/01 01:34:52;;;;;;;18.35;8.13;;;;;;;-3.04;100.00;101059.78;1710836;84;21082;-63
2022/12/01 01:37:18;;;;;;;14.85;8.00;;;;;;;-3.08;100.00;101057.56;1689452;84;21059;-63
2022/12/01 01:39:45;;;;;;;13.90;7.08;;;;;;;-3.11;100.00;101055.22;1710820;84;21038;-63
2022/12/01 01:42:13;;;;;;;16.05;7.55;;;;;;;-3.13;100.00;101053.21;1710658;84;21059;-63
2022/12/01 01:44:53;;;;;;;15.35;7.40;;;;;;;-3.15;100.00;101057.34;1710645;84;21006;-63
2022/12/01 01:47:29;;;;;;;12.95;6.90;;;;;;;-3.13;100.00;101051.88;1710630;84;21122;-63
2022/12/01 01:49:57;;;;;;;12.63;7.40;;;;;;;-3.12;100.00;101050.90;1689466;85;21570;-63
2022/12/01 01:52:23;;;;;;;15.35;7.58;;;;;;;-3.15;100.00;101041.36;1682687;84;21129;-63
2022/12/01 01:54:52;;;;;;;16.57;6.70;;;;;;;-3.16;100.00;101049.03;1689255;84;21011;-63
2022/12/01 01:57:28;;;;;;;14.53;7.65;;;;;;;-3.16;100.00;101058.84;1710462;84;21019;-63
2022/12/01 02:00:00;;;;;;;20.77;8.05;;;;;;;-3.19;100.00;101049.83;1710581;84;21027;-63
2022/12/01 02:02:26;;;;;;;16.32;6.83;;;;;;;-3.23;100.00;101037.31;1710619;84;21105;-63
2022/12/01 02:04:58;;;;;;;16.23;7.47;;;;;;;-3.25;100.00;101047.26;1710765;84;21054;-63
2022/12/01 02:07:24;;;;;;;14.95;7.40;;;;;;;-3.27;100.00;101042.59;1710560;84;21055;-63
2022/12/01 02:09:51;;;;;;;14.33;6.50;;;;;;;-3.28;100.00;101040.91;1679261;85;21543;-63
2022/12/01 04:58:43;;;;;;;34.35;19.52;;;;;;;-7.25;100.00;101061.72;1800021;79;22176;-62
2022/12/01 05:01:12;;;;;;;32.58;15.20;;;;;;;-7.15;100.00;101065.28;1759695;81;21038;-62
2022/12/01 05:03:40;;;;;;;21.12;12.18;;;;;;;-6.89;100.00;101069.27;1751549;81;21576;-62
2022/12/01 05:06:12;;;;;;;20.57;8.75;;;;;;;-6.67;100.00;101067.84;1751422;82;21505;-63
2022/12/01 05:08:39;;;;;;;18.85;8.03;;;;;;;-6.48;100.00;101072.91;1744537;82;21038;-62
2022/12/01 05:11:06;;;;;;;;;;;;;;;-6.32;100.00;101069.30;1736292;82;21054;-62
2022/12/01 05:13:43;;;;;;;18.75;7.87;;;;;;;-6.13;100.00;101072.06;1736539;82;20427;-62
2022/12/01 05:16:13;;;;;;;19.40;7.90;;;;;;;-6.03;100.00;101068.96;1737768;82;21042;-62
2022/12/01 05:18:40;;;;;;;19.65;7.70;;;;;;;-5.84;100.00;101068.98;1741145;82;21058;-63
2022/12/01 05:21:08;;;;;;;23.07;7.90;;;;;;;-5.69;100.00;101073.44;1723225;83;20991;-62
2022/12/01 05:23:35;;;;;;;15.55;7.45;;;;;;;-5.55;100.00;101077.03;1703074;82;21039;-62
2022/12/01 05:26:04;;;;;;;19.15;8.35;;;;;;;-5.45;100.00;101073.91;1752648;82;21042;-62
2022/12/01 05:28:30;;;;;;;16.77;7.55;;;;;;;-5.30;100.00;101081.84;1741749;82;21482;-63
2022/12/01 05:30:56;;;;;;;19.10;8.43;;;;;;;-5.19;100.00;101080.39;1737580;82;21571;-62
2022/12/01 05:33:24;;;;;;;14.75;7.72;;;;;;;-5.12;100.00;101075.36;1722886;83;21055;-63
2022/12/01 05:35:50;;;;;;;19.12;7.80;;;;;;;-5.04;100.00;101080.83;1722969;83;20975;-63
2022/12/01 05:38:18;;;;;;;20.30;8.45;;;;;;;-5.02;100.00;101077.05;1725647;82;21054;-63
2022/12/01 05:40:53;;;;;;;17.52;8.75;;;;;;;-4.99;100.00;101081.75;1735343;82;21482;-63
2022/12/01 05:43:20;;;;;;;18.12;9.23;;;;;;;-4.98;100.00;101084.73;1722830;83;21108;-63
2022/12/01 05:45:48;;;;;;;18.32;9.65;;;;;;;-4.98;100.00;101078.09;1717705;82;21478;-63
2022/12/01 05:48:15;;;;;;;20.23;8.43;;;;;;;-5.02;100.00;101077.53;1747462;81;21517;-63
2022/12/01 05:50:42;;;;;;;19.42;8.58;;;;;;;-5.05;100.00;101081.80;1736585;82;20951;-63
2022/12/01 05:53:11;;;;;;;17.75;8.90;;;;;;;-5.02;100.00;101085.49;1735489;82;21097;-63
2022/12/01 05:55:38;;;;;;;23.15;9.95;;;;;;;-5.00;100.00;101083.56;1738334;82;20991;-62
2022/12/01 05:58:04;;;;;;;17.65;8.65;;;;;;;-4.97;100.00;101085.09;1734785;81;20991;-62
2022/12/01 06:00:30;;;;;;;;;;;;;;;-4.97;100.00;101083.76;1715438;82;21396;-62
2022/12/01 06:02:57;;;;;;;17.10;7.78;;;;;;;-4.95;100.00;101093.25;1689859;84;20106;-60
2022/12/01 06:05:23;;;;;;;19.50;8.40;;;;;;;-4.98;100.00;101091.37;1722878;82;21450;-63
2022/12/01 06:07:50;;;;;;;18.45;8.50;;;;;;;-4.93;100.00;101090.47;1739396;82;21055;-62
2022/12/01 06:10:16;;;;;;;19.32;9.35;;;;;;;-4.89;100.00;101091.88;1718106;82;20976;-63
2022/12/01 06:12:43;;;;;;;18.57;9.13;;;;;;;-4.84;100.00;101087.81;1718349;82;21036;-62
2022/12/01 06:15:11;;;;;;;20.00;10.15;;;;;;;-4.81;100.00;101092.84;1738677;82;21000;-63
2022/12/01 06:17:37;;;;;;;20.02;8.63;;;;;;;-4.77;100.00;101093.39;1738302;82;21063;-63
2022/12/01 06:20:05;;;;;;;17.25;9.00;;;;;;;-4.71;100.00;101091.53;1738444;82;21482;-63
2022/12/01 06:22:32;;;;;;;17.75;9.50;;;;;;;-4.66;100.00;101098.08;1718185;82;21487;-62
2022/12/01 06:24:59;;;;;;;15.55;9.10;;;;;;;-4.60;100.00;101091.35;1738986;82;20995;-62
2022/12/01 06:27:25;;;;;;;20.08;9.80;;;;;;;-4.53;100.00;101093.30;1738468;82;21405;-63
2022/12/01 06:29:52;;;;;;;20.05;8.45;;;;;;;-4.46;100.00;101092.76;1737519;82;21019;-64
2022/12/01 06:32:18;;;;;;;17.27;9.03;;;;;;;-4.40;100.00;101092.18;1716858;82;21131;-63
2022/12/01 06:34:44;;;;;;;17.02;8.85;;;;;;;-4.35;100.00;101097.41;1737724;82;21487;-63
2022/12/01 06:37:11;;;;;;;17.17;8.68;;;;;;;-4.28;100.00;101091.02;1737395;82;21090;-63
2022/12/01 06:39:37;;;;;;;17.95;9.68;;;;;;;-4.25;100.00;101093.42;1737820;82;22319;-63
2022/12/01 06:42:04;;;;;;;19.57;8.73;;;;;;;-4.19;100.00;101091.50;1737756;82;21142;-63
2022/12/01 06:44:30;;;;;;;19.98;9.38;;;;;;;-4.08;100.00;101089.52;1718578;82;20960;-63
2022/12/01 06:50:35;;;;;;;17.48;9.18;;;;;;;-3.99;100.00;101077.15;1817526;79;22927;-63
2022/12/01 06:53:01;;;;;;;16.67;9.38;;;;;;;-3.99;100.00;101088.28;1767504;80;21097;-63
2022/12/01 06:55:28;;;;;;;26.45;18.15;;;;;;;-3.99;100.00;101083.80;1762061;81;21085;-63
2022/12/01 06:57:54;;;;;;;24.32;13.65;;;;;;;-3.92;100.00;101088.05;1762207;81;21620;-63
2022/12/01 07:00:21;;;;;;;20.50;11.57;;;;;;;-3.87;100.00;101087.97;1761963;81;21066;-63
2022/12/01 07:02:48;;;;;;;21.23;10.85;;;;;;;-3.81;100.00;101086.05;1734012;81;21567;-63
2022/12/01 07:05:14;;;;;;;17.98;10.20;;;;;;;-3.76;100.00;101085.13;1763569;81;21061;-63
2022/12/01 07:07:41;;;;;;;19.42;10.38;;;;;;;-3.69;100.00;101085.38;1763532;81;21033;-63
2022/12/01 07:10:09;;;;;;;18.20;10.53;;;;;;;-3.64;100.00;101089.73;1763460;81;21002;-63
2022/12/01 07:12:35;;;;;;;22.52;14.47;;;;;;;-3.56;100.00;101089.36;1763550;81;21042;-63
2022/12/01 07:15:03;;;;;;;21.40;14.13;;;;;;;-3.47;100.00;101093.45;1763674;81;21007;-63
2022/12/01 15:34:02;;;;;;;28.90;13.43;;;;;;;-3.91;100.00;100996.13;1795579;79;22728;-67
2022/12/01 15:36:28;;;;;;;30.37;14.23;;;;;;;-3.78;100.00;101005.92;1751753;82;21043;-68
2022/12/01 15:38:56;;;;;;;29.48;14.53;;;;;;;-3.52;100.00;100995.40;1751951;82;22385;-68
2022/12/01 15:41:22;;;;;;;19.42;10.23;;;;;;;-3.31;100.00;101002.60;1751951;82;21011;-68
2022/12/01 15:43:57;;;;;;;17.90;10.53;;;;;;;-3.11;100.00;101001.45;1751903;82;21133;-67
2022/12/01 15:46:33;;;;;;;40.80;17.67;;;;;;;-3.01;100.00;100994.70;1751762;82;21050;-67
2022/12/01 15:49:08;;;;;;;47.98;19.55;;;;;;;-2.88;100.00;100994.31;1751470;82;21372;-68
2022/12/01 15:51:34;;;;;;;34.25;16.97;;;;;;;-2.78;100.00;100997.23;1750416;82;21482;-68
2022/12/01 15:54:01;;;;;;;37.55;18.00;;;;;;;-2.72;100.00;100996.59;1751551;82;21110;-68
2022/12/01 15:56:35;;;;;;;50.90;23.55;;;;;;;-2.70;100.00;100991.97;1751678;82;21046;-68
2022/12/01 15:59:12;;;;;;;47.27;23.32;;;;;;;-2.64;100.00;100983.34;1750642;82;21153;-68
2022/12/01 16:01:41;;;;;;;30.35;15.45;;;;;;;-2.60;100.00;100980.70;1752595;82;21030;-68
2022/12/01 16:04:25;;;;;;;29.82;15.68;;;;;;;-2.56;100.00;100981.22;1752834;82;21035;-68
2022/12/01 16:07:03;;;;;;;28.77;13.83;;;;;;;-2.52;100.00;100974.59;1752611;81;20972;-68
2022/12/01 16:09:39;;;;;;;29.92;14.38;;;;;;;-2.41;100.00;100970.33;1752585;82;21008;-68
2022/12/01 16:12:20;;;;;;;24.50;13.55;;;;;;;-2.35;100.00;100977.69;1752920;82;21003;-67
2022/12/01 16:15:10;;;;;;;22.40;12.88;;;;;;;-2.31;100.00;100971.04;1752856;82;21565;-67
2022/12/01 16:17:46;;;;;;;19.35;10.63;;;;;;;-2.27;100.00;100972.89;1752775;82;21018;-68
2022/12/01 16:20:33;;;;;;;23.27;11.85;;;;;;;-2.22;100.00;100966.56;1752672;82;21045;-68
2022/12/01 16:23:02;;;;;;;18.40;10.93;;;;;;;-2.23;100.00;100967.58;1723359;82;21596;-68
2022/12/01 16:25:38;;;;;;;19.02;10.72;;;;;;;-2.26;100.00;100966.54;1750531;82;21078;-68
2022/12/01 16:28:06;;;;;;;19.48;10.08;;;;;;;-2.31;100.00;100968.38;1736963;82;21011;-67
2022/12/01 16:30:37;;;;;;;23.70;13.75;;;;;;;-2.33;100.00;100964.17;1721134;83;21078;-66
2022/12/01 16:33:16;;;;;;;19.15;11.28;;;;;;;-2.34;100.00;100959.86;1729238;82;21098;-66
2022/12/01 16:35:43;;;;;;;20.57;10.85;;;;;;;-2.35;100.00;100960.84;1728902;82;21018;-67
2022/12/01 16:38:19;;;;;;;20.92;11.83;;;;;;;-2.38;100.00;100958.00;1740959;81;21079;-68
2022/12/01 16:40:46;;;;;;;20.82;12.10;;;;;;;-2.45;100.00;100954.30;1716340;82;21087;-68
2022/12/01 16:47:24;;;;;;;21.90;11.97;;;;;;;-2.37;100.00;100954.84;1774967;79;22983;-68
2022/12/01 16:49:51;;;;;;;20.27;11.35;;;;;;;-2.45;100.00;100964.12;1741157;82;21669;-67
2022/12/01 16:52:17;;;;;;;18.55;11.35;;;;;;;-2.45;100.00;100960.13;1734946;82;21105;-67
2022/12/01 16:54:44;;;;;;;19.42;11.08;;;;;;;-2.43;100.00;100960.79;1734461;81;21109;-68
2022/12/01 16:57:10;;;;;;;21.42;10.90;;;;;;;-2.41;100.00;100962.81;1704006;82;21093;-67
2022/12/01 16:59:42;;;;;;;17.42;11.05;;;;;;;-2.44;100.00;100962.61;1735365;81;21129;-69
2022/12/01 17:02:10;;;;;;;25.88;14.45;;;;;;;-2.51;100.00;100962.41;1735863;82;21070;-67
2022/12/01 17:04:36;;;;;;;21.90;13.22;;;;;;;-2.51;100.00;100957.58;1735950;81;21090;-67
2022/12/01 17:07:03;;;;;;;19.90;11.38;;;;;;;-2.54;100.00;100957.41;1736664;82;21030;-68
2022/12/01 17:09:29;;;;;;;19.98;11.15;;;;;;;-2.54;100.00;100954.73;1736763;81;21065;-67
2022/12/01 17:11:56;;;;;;;21.02;12.25;;;;;;;-2.55;100.00;100958.91;1731621;83;21475;-67
2022/12/01 17:14:22;;;;;;;;;;;;;;;-2.56;100.00;100955.90;1734356;82;21070;-67
2022/12/01 17:25:01;;;;;;;28.83;14.93;;;;;;;-2.56;100.00;100953.23;1758406;80;28242;-67
2022/12/01 17:27:28;;;;;;;26.02;13.43;;;;;;;-2.56;100.00;100958.56;1699814;83;21033;-67
2022/12/01 17:29:54;;;;;;;24.87;12.80;;;;;;;-2.52;100.00;100967.92;1728651;83;21089;-67
2022/12/01 17:32:21;;;;;;;23.30;12.82;;;;;;;-2.46;100.00;100963.28;1755843;81;21040;-67
2022/12/01 17:34:48;;;;;;;;;;;;;;;-2.39;100.00;100960.81;1759951;81;21151;-67
2022/12/01 17:37:14;;;;;;;22.00;12.40;;;;;;;-2.34;100.00;100959.86;1758826;81;20299;-67
2022/12/01 17:39:41;;;;;;;24.40;12.90;;;;;;;-2.31;100.00;100956.86;1756992;81;21060;-67
2022/12/01 17:42:08;;;;;;;28.95;13.08;;;;;;;-2.29;100.00;100953.53;1757577;80;21012;-67
2022/12/01 17:44:34;;;;;;;24.55;12.20;;;;;;;-2.26;100.00;100951.87;1755918;80;21095;-67
2022/12/01 17:47:01;;;;;;;23.87;11.55;;;;;;;-2.24;100.00;100944.56;1756660;81;20992;-67
2022/12/01 17:49:27;;;;;;;20.88;12.00;;;;;;;-2.19;100.00;100954.23;1756514;81;21634;-67
2022/12/01 17:51:53;;;;;;;21.02;10.53;;;;;;;-2.19;100.00;100951.56;1772678;80;21011;-67
2022/12/01 17:54:20;;;;;;;20.88;11.38;;;;;;;-2.20;100.00;100948.59;1783520;80;21040;-68
2022/12/01 17:56:47;;;;;;;;;;;;;;;-2.21;100.00;100949.57;1783266;80;21004;-68
2022/12/01 17:59:13;;;;;;;25.37;13.03;;;;;;;-2.28;100.00;100953.88;1735411;82;20157;-68
2022/12/01 18:01:41;;;;;;;23.32;12.47;;;;;;;-2.37;100.00;100955.66;1751621;82;20993;-71
2022/12/01 18:04:08;;;;;;;26.85;11.83;;;;;;;-2.46;100.00;100957.11;1746494;82;21466;-68
2022/12/01 18:06:35;;;;;;;;;;;;;;;-2.53;100.00;100948.91;1742576;81;21032;-68
2022/12/01 18:09:01;;;;;;;18.07;10.60;;;;;;;-2.61;100.00;100952.85;1791599;80;20126;-68
2022/12/01 18:11:28;;;;;;;;;;;;;;;-2.69;100.00;100956.80;1749261;82;21665;-67
2022/12/01 18:13:54;;;;;;;20.08;10.35;;;;;;;-2.70;100.00;100957.81;1777187;80;20179;-68
2022/12/01 18:16:24;;;;;;;20.02;11.03;;;;;;;-2.77;100.00;100947.43;1777512;80;21099;-68
2022/12/01 18:18:51;;;;;;;22.02;10.70;;;;;;;-2.78;100.00;100942.59;1775789;80;21005;-68
2022/12/01 18:21:22;;;;;;;21.33;11.20;;;;;;;-2.79;100.00;100944.07;1772107;80;21627;-68
2022/12/01 18:23:57;;;;;;;21.70;11.55;;;;;;;-2.83;100.00;100950.20;1757869;80;21028;-67
2022/12/01 18:26:24;;;;;;;19.12;10.90;;;;;;;-2.83;100.00;100944.03;1750646;82;22093;-68
2022/12/01 22:34:53;;;;;;;28.65;12.75;;;;;;;-4.97;100.00;100948.31;1790063;79;22962;-64
2022/12/01 22:37:24;;;;;;;25.80;11.30;;;;;;;-4.81;100.00;100949.88;1723080;82;21003;-63
2022/12/01 22:39:54;;;;;;;21.87;10.70;;;;;;;-4.50;100.00;100954.00;1744369;82;21106;-64
2022/12/01 22:42:32;;;;;;;21.68;10.48;;;;;;;-4.32;100.00;100946.91;1753028;81;21490;-64
2022/12/01 22:45:23;;;;;;;21.62;10.80;;;;;;;-4.17;100.00;100953.42;1753218;82;21007;-63
2022/12/01 22:47:52;;;;;;;25.52;11.08;;;;;;;-4.04;100.00;100953.09;1749046;82;20987;-64
2022/12/01 22:50:30;;;;;;;18.23;10.65;;;;;;;-3.94;100.00;100952.54;1752712;81;21522;-63
2022/12/01 22:53:12;;;;;;;22.70;10.15;;;;;;;-3.80;100.00;100947.20;1752902;82;21502;-64
2022/12/01 22:55:38;;;;;;;20.65;11.00;;;;;;;-3.71;100.00;100939.14;1752911;82;20972;-64
2022/12/01 22:58:23;;;;;;;23.47;10.72;;;;;;;-3.66;100.00;100934.70;1752844;82;21055;-64
2022/12/01 23:00:50;;;;;;;19.87;10.13;;;;;;;-3.60;100.00;100934.93;1752952;82;20987;-64
2022/12/01 23:03:17;;;;;;;22.13;11.25;;;;;;;-3.54;100.00;100936.97;1752688;81;21077;-64
2022/12/01 23:05:44;;;;;;;18.90;9.78;;;;;;;-3.48;100.00;100938.70;1751573;82;21008;-64
2022/12/01 23:08:15;;;;;;;18.92;10.38;;;;;;;-3.43;100.00;100939.91;1751014;82;21412;-63
2022/12/01 23:10:42;;;;;;;18.48;10.05;;;;;;;-3.40;100.00;100933.45;1689493;85;21499;-63
2022/12/01 23:13:16;;;;;;;18.23;10.45;;;;;;;-3.35;100.00;100931.16;1710792;84;21035;-63
2022/12/01 23:15:47;;;;;;;17.35;9.58;;;;;;;-3.33;100.00;100931.86;1708114;84;20995;-64
2022/12/01 23:18:23;;;;;;;21.55;11.33;;;;;;;-3.30;100.00;100928.88;1687941;85;21087;-64
2022/12/01 23:20:53;;;;;;;21.48;10.88;;;;;;;-3.28;100.00;100922.89;1709057;84;21042;-63
2022/12/01 23:23:28;;;;;;;18.17;9.83;;;;;;;-3.26;100.00;100922.27;1687776;85;21985;-63
2022/12/01 23:25:55;;;;;;;19.90;9.90;;;;;;;-3.23;100.00;100916.13;1709432;84;21441;-64
2022/12/01 23:28:21;;;;;;;19.92;9.65;;;;;;;-3.22;100.00;100914.28;1688405;85;21115;-63
2022/12/01 23:30:50;;;;;;;;;;;;;;;-3.22;100.00;100916.45;1712041;84;21518;-63
2022/12/01 23:33:22;;;;;;;19.55;10.08;;;;;;;-3.18;100.00;100909.83;1704814;84;20135;-63
2022/12/01 23:36:11;;;;;;;22.10;10.00;;;;;;;-3.23;100.00;100920.12;1651394;85;21882;-63
2022/12/01 23:38:46;;;;;;;20.97;9.53;;;;;;;-3.19;100.00;100916.66;1742141;82;21099;-63
2022/12/01 23:41:22;;;;;;;18.98;9.65;;;;;;;-3.19;100.00;100915.33;1742424;82;21051;-64
2022/12/01 23:43:49;;;;;;;20.82;9.73;;;;;;;-3.18;100.00;100911.16;1741864;82;21067;-64
2022/12/01 23:46:22;;;;;;;17.35;9.28;;;;;;;-3.14;100.00;100911.69;1741350;82;21103;-63
2022/12/01 23:49:00;;;;;;;18.35;9.35;;;;;;;-3.14;100.00;100912.53;1740160;82;21450;-64
2022/12/01 23:51:37;;;;;;;18.85;9.28;;;;;;;-3.10;100.00;100913.89;1741169;82;21056;-63
2022/12/01 23:54:22;;;;;;;18.25;9.08;;;;;;;-3.08;100.00;100908.39;1740743;82;21166;-64
2022/12/01 23:56:54;;;;;;;14.28;8.43;;;;;;;-3.07;100.00;100906.08;1741229;82;22065;-64
2022/12/01 23:59:21;;;;;;;16.15;8.23;;;;;;;-3.04;100.00;100905.77;1741013;82;21129;-63
